茨城空港(百里飛行場)の過去48時間の天気

茨城空港(百里飛行場) (Hyakuri)

現在時刻: 8/13 19:25 JST (8/13 10:25 UTC) 以下の時間は現地時間です。

過去48時間のMETAR気象情報
時間 風向 風速(m/s) 視程 気温(℃) 湿度(%) 気圧(hPa) 天気現象
13 19:00 南東 4 10km以上 25 100 1007 弱いしゅう雨
13 18:00 4 10km以上 25 100 1008 弱いしゅう雨
13 17:00 南南西 4 10km以上 25 100 1008 弱いしゅう雨
13 16:00 5 10km以上 25 100 1009 弱いしゅう雨
13 15:14 南南西 7 10km以上 27 89 1009 弱いしゅう雨
13 15:00 南南西 5 10km以上 27 94 1009
13 14:00 5 8000m 25 100 1009
13 13:36 4 6000m 25 100 1009
13 13:23 4 5000m 24 100 1010 弱い雷雨 もや
13 13:00 南南西 7 3000m 24 100 1010 雷雨 もや
13 12:38 南西 10 2500m 25 94 1010 強いしゅう雨 もや
13 12:30 南西 11 3000m 27 84 1010 しゅう雨 もや
13 12:16 6 10km以上 30 84 1009
13 12:00 8 10km以上 29 89 1010 弱いしゅう雨
13 11:49 8 10km以上 30 79 1010 しゅう雨
13 11:22 7 10km以上 31 70 1010 弱いしゅう雨
13 11:00 7 10km以上 31 66 1010
13 10:00 南南西 6 10km以上 31 75 1010
13 09:18 南南西 5 10km以上 31 75 1010
13 09:00 南西 4 10km以上 29 84 1011
13 08:00 西南西 3 10km以上 27 89 1011
13 07:00 南西 5 10km以上 27 89 1010
13 06:00 南南西 6 10km以上 27 94 1009
13 05:06 5 10km以上 27 89 1009 弱いしゅう雨
13 04:00 南南西 4 10km以上 27 94 1009 弱いしゅう雨
13 03:00 南南西 7 10km以上 27 94 1009
13 02:00 南南西 7 10km以上 27 94 1009
13 01:00 9 10km以上 27 94 1009 弱いしゅう雨
13 00:00 南南西 8 10km以上 27 94 1010 弱いしゅう雨
12 23:00 南南西 7 10km以上 27 94 1010 弱いしゅう雨
12 22:00 西南西 2 10km以上 27 94 1010 弱いしゅう雨
12 21:00 5 10km以上 28 84 1010 弱いしゅう雨
12 20:11 南南西 5 10km以上 28 84 1010 弱いしゅう雨
12 20:00 南南西 6 10km以上 28 84 1010
12 19:00 7 10km以上 28 79 1009
12 18:00 南南西 7 10km以上 29 74 1008
12 17:00 南南西 8 10km以上 29 70 1008
12 16:00 南西 9 10km以上 31 62 1009
12 15:00 南南西 10 10km以上 31 59 1009
12 14:00 南南西 11 10km以上 33 56 1009
12 13:00 南南西 11 10km以上 33 59 1009
12 12:00 南南西 8 10km以上 33 59 1009
12 11:00 南南西 11 10km以上 33 56 1010
12 10:00 南西 8 10km以上 30 70 1010
12 09:00 南南西 10 10km以上 30 70 1010
12 08:00 南南西 8 10km以上 29 84 1010
12 07:00 南南西 6 10km以上 28 89 1009
12 06:00 南南西 6 10km以上 27 89 1009
12 05:00 南南西 6 10km以上 27 94 1009
12 04:42 南南西 6 10km以上 27 94 1009
12 04:00 南南西 6 10km以上 26 100 1009
12 03:26 南南西 6 10km以上 27 94 1009 弱いしゅう雨
12 03:00 南南西 7 10km以上 27 94 1009
12 02:00 6 10km以上 27 94 1009
12 01:00 南南西 6 10km以上 27 94 1009
12 00:00 南南西 6 10km以上 27 94 1009
11 23:00 南南西 7 10km以上 28 84 1009
11 22:00 6 10km以上 28 84 1010
11 21:47 6 10km以上 28 84 1010
11 21:00 南南西 6 10km以上 28 84 1010
11 20:00 南南西 7 10km以上 28 84 1010
11 19:34 南南西 7 10km以上 28 84 1010
RJAH 131000Z 13007KT 9999 -SHRA FEW008 BKN015 BKN100 25/25 Q1007
RJAH 130900Z 17008KT 9999 -SHRA FEW012 SCT015 BKN100 25/25 Q1008
RJAH 130800Z 20007KT 9999 -SHRA FEW008 BKN120 25/25 Q1008
RJAH 130700Z 19010KT 9999 -SHRA FEW008 BKN100 25/25 Q1009
RJAH 130614Z 20013KT 9999 -SHRA FEW008 BKN100 BKN200 27/25 Q1009 RMK 1ST008 5AC100 A2980
RJAH 130600Z 20009KT 9999 FEW008 SCT025 BKN100 27/26 Q1009
RJAH 130500Z 18009KT 8000 SCT025 BKN100 BKN200 25/25 Q1009 RETS
RJAH 130436Z 19008KT 6000 SCT025 BKN100 BKN200 25/25 Q1009 RETS RMK 3CU025 5AC100 A2982
RJAH 130423Z 19007KT 5000 -TSRA BR FEW020 SCT025 FEW030CB BKN100 24/24 Q1010 RMK 1CU020 4CU025 2CB030 7AC100 A2982 FBL TS 20KM E MOV NE
RJAH 130400Z 21014KT 3000 TSRA BR FEW020 BKN025 SCT030CB 24/24 Q1010
RJAH 130338Z 22020KT 2500 +SHRA BR FEW020 BKN025 SCT030CB 25/24 Q1010 RMK 1CU020 7CU025 3CB030 A2985 MAX WIND 27KT CB OHD MOV N
RJAH 130330Z 22022KT 3000 SHRA BR FEW020 BKN025 SCT030CB 27/24 Q1010 RMK 2CU020 7CU025 3CB030 A2985 MAX WIND 31KT CB OHD MOV N
RJAH 130316Z 17011KT 9999 FEW020 BKN025 BKN250 30/27 Q1009 RMK 1CU020 5CU025 A2982
RJAH 130300Z 17015G25KT 9999 -SHRA FEW020 BKN025 BKN250 29/27 Q1010
RJAH 130249Z 17015G25KT 9999 SHRA FEW020 BKN025 BKN250 30/26 Q1010 RMK 1CU020 6CU025 A2983
RJAH 130222Z 17013KT 9999 -SHRA FEW020 BKN025 BKN250 31/25 Q1010 RMK 1CU020 5CU025 A2983
RJAH 130200Z 19013KT 9999 FEW020 BKN025 BKN250 31/24 Q1010
RJAH 130100Z 20012KT 9999 FEW020 BKN025 BKN250 31/26 Q1010
RJAH 130018Z 20010KT 170V240 9999 SCT025 SCT100 BKN250 31/26 Q1010 RMK 3CU025 3AC100 A2985
RJAH 130000Z 22007KT 9999 FEW020 SCT030 BKN100 29/26 Q1011
RJAH 122300Z 24005KT 210V270 9999 FEW015 SCT020 BKN100 27/25 Q1011
RJAH 122200Z 22009KT 9999 FEW015 SCT020 BKN100 27/25 Q1010
RJAH 122100Z 20011KT 9999 FEW015 BKN020 BKN080 27/26 Q1009
RJAH 122006Z 18009KT 9999 -SHRA FEW015 BKN020 BKN080 27/25 Q1009 RMK 1CU015 5CU020 7AC080 A2982
RJAH 121900Z 20008KT 9999 -SHRA FEW030 BKN080 BKN130 27/26 Q1009
RJAH 121800Z 20013KT 9999 FEW030 BKN130 BKN/// 27/26 Q1009
RJAH 121700Z 20013KT 9999 FEW030 BKN120 BKN/// 27/26 Q1009
RJAH 121600Z 19018KT 9999 -SHRA SCT025 BKN120 27/26 Q1009
RJAH 121500Z 20015KT 9999 -SHRA FEW015 BKN025 BKN130 27/26 Q1010
RJAH 121400Z 20013KT 9999 -SHRA FEW015 BKN025 BKN150 27/26 Q1010
RJAH 121300Z 24004KT 9999 -SHRA FEW015 BKN025 BKN150 27/26 Q1010
RJAH 121200Z 19010KT 9999 -SHRA FEW015 BKN030 BKN160 28/25 Q1010
RJAH 121111Z 20010KT 9999 -SHRA FEW015 BKN030 BKN180 28/25 Q1010 RMK 1CU015 5CU030 7AC180 A2984
RJAH 121100Z 21011KT 9999 FEW015 BKN030 BKN180 28/25 Q1010
RJAH 121000Z 19014KT 9999 FEW030 BKN/// 28/24 Q1009
RJAH 120900Z 20014KT 9999 FEW030 BKN250 29/24 Q1008
RJAH 120800Z 21015KT 9999 FEW030 BKN250 29/23 Q1008
RJAH 120700Z 22017G28KT 9999 FEW030 SCT140 BKN250 31/23 Q1009
RJAH 120600Z 21020G33KT 9999 FEW030 SCT140 BKN250 31/22 Q1009
RJAH 120500Z 21022G33KT 9999 FEW030 SCT140 BKN250 33/23 Q1009
RJAH 120400Z 21022KT 9999 FEW030 SCT140 BKN250 33/24 Q1009
RJAH 120300Z 21016G26KT 9999 FEW030 SCT140 33/24 Q1009
RJAH 120200Z 21022G33KT 9999 FEW030 SCT100 33/23 Q1010
RJAH 120100Z 22016KT 9999 FEW020 SCT030 BKN140 30/24 Q1010
RJAH 120000Z 21020G30KT 9999 FEW020 BKN030 30/24 Q1010
RJAH 112300Z 21015KT 9999 FEW015 BKN020 29/26 Q1010
RJAH 112200Z 20011KT 9999 FEW015 BKN020 28/26 Q1009
RJAH 112100Z 21012KT 9999 FEW015 BKN020 27/25 Q1009
RJAH 112000Z 20011KT 9999 FEW015 BKN020 27/26 Q1009
RJAH 111942Z 20012KT 9999 FEW015 BKN020 27/26 Q1009 RMK 1CU015 6CU020 A2981
RJAH 111900Z 20012KT 9999 FEW012 BKN015 26/26 Q1009
RJAH 111826Z COR 20011KT 9999 -SHRA FEW012 BKN015 27/26 Q1009 RMK 2CU012 7CU015 A2980 FCST AMD 1800 BECMG 1818 FEW012CU SCT015CU TEMPO 1820 -SHRA SCT012CU BKN015CU BECMG 2020 NSW SCT020CU TEMPO 2000 FEW030CU BKN080AC BKN130AC
RJAH 111800Z 20014KT 9999 FEW015 BKN020 27/26 Q1009
RJAH 111700Z 19011KT 9999 FEW015 BKN020 27/26 Q1009
RJAH 111600Z 20011KT 9999 FEW015 BKN020 27/26 Q1009
RJAH 111500Z 20012KT 9999 FEW015 BKN020 27/26 Q1009
RJAH 111400Z 20013KT 9999 FEW015 BKN020 28/25 Q1009
RJAH 111300Z 19011KT 9999 FEW015 BKN020 28/25 Q1010
RJAH 111247Z 19011KT 9999 FEW015 BKN020 28/25 Q1010 RMK 1CU015 5CU020 A2983
RJAH 111200Z 20012KT 9999 FEW025 SCT030 28/25 Q1010
RJAH 111100Z 20013KT 9999 FEW025 BKN030 28/25 Q1010
RJAH 111034Z 20014KT 180V240 9999 FEW025 BKN030 BKN/// 28/25 Q1010 RMK 1CU025 5CU030 A2982